Dades meteomassalio
Diari Summary for Octubre 11, 2017 Units:  English    Metric   Both
« Previous Day
Next Day »
Diari Semanal Mensual Anual Personalitzat
  Maxima: Minima: Mijana:
Temperatura: TemperatureC °F 5.0 °F 13.9 °F
Rosada: DewpointC °F 0.3 °F 7.2 °F
Humitat: Humidity % 35 % 67 %
Velocitat del vent: WindSpeedKMH mph 0.0 mph 2.2 mph
Racha vent: WindSpeedGustKMH mph - -
Vent:- - West
Pressio: PressurehPa in 1022.2 in -
Pluja: 0.0 in    
Historical Graphs
 
 
Tabular Data for Octubre 11, 2017
Time Temperature Dew Point Pressure Wind Wind Speed Wind Gust Humidity Rainfall Rate (Hourly) solar Conditions
TemperatureC °F DewpointC °F PressurehPa in Calm     Humidity % HourlyPrecipMM in SolarRadiationWatts/m^2 W/m2 Conditions
00:02 8.3 °F 0.3 °F 1023.9 in Calm     57 % 0.0 in 0.0 W/m2 CLR
00:07 8.3 °F 0.3 °F 1023.9 in Calm     57 % 0.0 in 0.0 W/m2 CLR
00:17 8.3 °F 0.8 °F 1023.9 in Calm     59 % 0.0 in 0.0 W/m2 CLR
00:22 8.9 °F 1.6 °F 1023.9 in Calm     60 % 0.0 in 0.0 W/m2 CLR
00:27 8.9 °F 1.8 °F 1023.9 in Calm     61 % 0.0 in 0.0 W/m2 CLR
00:32 8.3 °F 1.0 °F 1023.9 in Calm     60 % 0.0 in 0.0 W/m2 CLR
00:37 8.3 °F 1.2 °F 1023.9 in Calm     61 % 0.0 in 0.0 W/m2 CLR
00:42 8.3 °F 1.2 °F 1023.9 in Calm     61 % 0.0 in 0.0 W/m2 CLR
00:47 8.3 °F 1.4 °F 1023.9 in Calm     62 % 0.0 in 0.0 W/m2 CLR
00:52 7.8 °F 0.9 °F 1023.9 in Calm     62 % 0.0 in 0.0 W/m2 CLR
00:57 7.8 °F 1.2 °F 1023.9 in Calm     63 % 0.0 in 0.0 W/m2 CLR
01:02 7.2 °F 0.8 °F 1023.9 in Calm     64 % 0.0 in 0.0 W/m2 CLR
01:07 7.2 °F 1.1 °F 1023.9 in Calm     65 % 0.0 in 0.0 W/m2 CLR
01:12 7.2 °F 1.3 °F 1023.9 in Calm     66 % 0.0 in 0.0 W/m2 CLR
01:17 7.2 °F 1.3 °F 1023.9 in Calm     66 % 0.0 in 0.0 W/m2 CLR
01:22 7.2 °F 1.3 °F 1023.9 in Calm     66 % 0.0 in 0.0 W/m2 CLR
01:27 7.2 °F 1.5 °F 1023.9 in Calm     67 % 0.0 in 0.0 W/m2 CLR
01:32 7.2 °F 2.1 °F 1023.9 in Calm     70 % 0.0 in 0.0 W/m2 CLR
01:37 6.7 °F 1.6 °F 1023.9 in Calm     70 % 0.0 in 0.0 W/m2 CLR
01:42 6.7 °F 1.8 °F 1023.9 in Calm     71 % 0.0 in 0.0 W/m2 CLR
01:47 6.7 °F 1.8 °F 1023.9 in Calm     71 % 0.0 in 0.0 W/m2 CLR
01:52 6.7 °F 1.8 °F 1023.9 in Calm     71 % 0.0 in 0.0 W/m2 CLR
01:57 6.7 °F 1.8 °F 1023.9 in Calm     71 % 0.0 in 0.0 W/m2 CLR
02:02 6.7 °F 1.8 °F 1023.9 in Calm     71 % 0.0 in 0.0 W/m2 CLR
02:07 6.1 °F 1.4 °F 1023.9 in Calm     72 % 0.0 in 0.0 W/m2 CLR
02:12 6.1 °F 1.2 °F 1023.9 in Calm     71 % 0.0 in 0.0 W/m2 CLR
02:17 6.1 °F 1.8 °F 1023.9 in Calm     74 % 0.0 in 0.0 W/m2 CLR
02:22 6.1 °F 2.0 °F 1023.9 in Calm     75 % 0.0 in 0.0 W/m2 CLR
02:27 6.1 °F 2.2 °F 1023.9 in Calm     76 % 0.0 in 0.0 W/m2 CLR
02:32 6.1 °F 2.0 °F 1023.9 in Calm     75 % 0.0 in 0.0 W/m2 CLR
02:37 6.1 °F 2.0 °F 1023.9 in Calm     75 % 0.0 in 0.0 W/m2 CLR
02:42 6.1 °F 1.8 °F 1023.9 in Calm     74 % 0.0 in 0.0 W/m2 CLR
02:47 6.1 °F 2.2 °F 1024.3 in Calm     76 % 0.0 in 0.0 W/m2 CLR
02:52 6.1 °F 2.4 °F 1024.3 in Calm     77 % 0.0 in 0.0 W/m2 CLR
02:57 6.1 °F 2.4 °F 1024.3 in Calm     77 % 0.0 in 0.0 W/m2 CLR
03:02 6.1 °F 2.4 °F 1023.9 in Calm     77 % 0.0 in 0.0 W/m2 CLR
03:07 6.1 °F 2.2 °F 1024.3 in Calm     76 % 0.0 in 0.0 W/m2 CLR
03:12 6.1 °F 2.4 °F 1024.3 in Calm     77 % 0.0 in 0.0 W/m2 CLR
03:17 6.1 °F 2.4 °F 1024.3 in Calm     77 % 0.0 in 0.0 W/m2 CLR
03:22 6.1 °F 2.7 °F 1023.9 in Calm     79 % 0.0 in 0.0 W/m2 CLR
03:27 6.1 °F 2.7 °F 1023.9 in Calm     79 % 0.0 in 0.0 W/m2 CLR
03:32 6.1 °F 2.9 °F 1023.9 in Calm     80 % 0.0 in 0.0 W/m2 CLR
03:37 6.1 °F 3.1 °F 1023.9 in Calm     81 % 0.0 in 0.0 W/m2 CLR
03:42 6.1 °F 2.9 °F 1023.9 in Calm     80 % 0.0 in 0.0 W/m2 CLR
03:47 6.1 °F 2.7 °F 1023.9 in Calm     79 % 0.0 in 0.0 W/m2 CLR
03:52 6.1 °F 2.9 °F 1023.9 in Calm     80 % 0.0 in 0.0 W/m2 CLR
03:57 6.1 °F 3.1 °F 1023.9 in Calm     81 % 0.0 in 0.0 W/m2 CLR
04:02 6.1 °F 3.1 °F 1023.9 in Calm     81 % 0.0 in 0.0 W/m2 CLR
04:12 6.1 °F 3.1 °F 1023.9 in Calm     81 % 0.0 in 0.0 W/m2 CLR
04:17 6.1 °F 3.3 °F 1023.9 in Calm     82 % 0.0 in 0.0 W/m2 CLR
04:18 6.1 °F 3.3 °F 1023.9 in Calm     82 % 0.0 in 0.0 W/m2 CLR
04:23 6.7 °F 3.8 °F 1023.9 in Calm     82 % 0.0 in 0.0 W/m2 CLR
04:28 6.7 °F 3.8 °F 1023.9 in Calm     82 % 0.0 in 0.0 W/m2 CLR
04:33 7.2 °F 4.3 °F 1023.9 in Calm     82 % 0.0 in 0.0 W/m2 CLR
04:38 7.2 °F 4.3 °F 1023.6 in Calm     82 % 0.0 in 0.0 W/m2 CLR
04:43 7.2 °F 4.3 °F 1023.6 in Calm     82 % 0.0 in 0.0 W/m2 CLR
04:48 6.7 °F 4.0 °F 1023.6 in Calm     83 % 0.0 in 0.0 W/m2 CLR
04:53 6.7 °F 4.0 °F 1023.9 in Calm     83 % 0.0 in 0.0 W/m2 CLR
04:58 6.7 °F 4.0 °F 1023.6 in Calm     83 % 0.0 in 0.0 W/m2 CLR
05:03 6.1 °F 3.6 °F 1023.9 in Calm     84 % 0.0 in 0.0 W/m2 CLR
05:08 6.1 °F 3.8 °F 1023.9 in Calm     85 % 0.0 in 0.0 W/m2 CLR
05:13 6.1 °F 3.8 °F 1023.9 in Calm     85 % 0.0 in 0.0 W/m2 CLR
05:18 6.1 °F 3.9 °F 1023.9 in Calm     86 % 0.0 in 0.0 W/m2 CLR
05:23 6.1 °F 3.8 °F 1023.9 in Calm     85 % 0.0 in 0.0 W/m2 CLR
05:24 6.1 °F 3.8 °F 1023.9 in Calm     85 % 0.0 in 0.0 W/m2 CLR
05:27 6.1 °F 3.8 °F 1023.9 in Calm     85 % 0.0 in 0.0 W/m2 CLR
05:32 6.1 °F 3.8 °F 1023.9 in Calm     85 % 0.0 in 0.0 W/m2 CLR
05:37 6.1 °F 3.8 °F 1023.9 in Calm     85 % 0.0 in 0.0 W/m2 CLR
05:42 5.6 °F 3.2 °F 1023.9 in Calm     85 % 0.0 in 0.0 W/m2 CLR
05:47 5.6 °F 3.4 °F 1023.9 in Calm     86 % 0.0 in 0.0 W/m2 CLR
05:52 6.1 °F 3.9 °F 1023.9 in Calm     86 % 0.0 in 0.0 W/m2 CLR
05:57 6.1 °F 3.9 °F 1023.9 in Calm     86 % 0.0 in 0.0 W/m2 CLR
06:02 6.1 °F 3.9 °F 1023.9 in Calm     86 % 0.0 in 0.0 W/m2 CLR
06:07 6.1 °F 3.8 °F 1023.9 in Calm     85 % 0.0 in 0.0 W/m2 CLR
06:12 6.1 °F 3.8 °F 1023.9 in Calm     85 % 0.0 in 0.0 W/m2 CLR
06:17 6.1 °F 3.8 °F 1023.9 in Calm     85 % 0.0 in 0.0 W/m2 CLR
06:22 5.6 °F 3.4 °F 1023.9 in Calm     86 % 0.0 in 0.0 W/m2 CLR
06:27 5.6 °F 3.6 °F 1023.9 in Calm     87 % 0.0 in 0.0 W/m2 CLR
06:32 5.6 °F 3.6 °F 1023.9 in Calm     87 % 0.0 in 0.0 W/m2 CLR
06:37 5.6 °F 3.6 °F 1023.9 in Calm     87 % 0.0 in 0.0 W/m2 CLR
06:47 5.6 °F 3.4 °F 1023.9 in Calm     86 % 0.0 in 0.0 W/m2 CLR
06:52 5.6 °F 3.4 °F 1023.9 in Calm     86 % 0.0 in 0.0 W/m2 CLR
06:57 6.1 °F 4.1 °F 1023.9 in Calm     87 % 0.0 in 0.0 W/m2 CLR
07:02 6.1 °F 4.1 °F 1023.9 in Calm     87 % 0.0 in 0.0 W/m2 CLR
07:07 6.1 °F 4.1 °F 1023.9 in Calm     87 % 0.0 in 0.0 W/m2 CLR
07:12 6.1 °F 4.3 °F 1023.9 in Calm     88 % 0.0 in 0.0 W/m2 CLR
07:17 6.1 °F 4.3 °F 1023.9 in Calm     88 % 0.0 in 0.0 W/m2 CLR
07:22 5.6 °F 3.7 °F 1023.9 in Calm     88 % 0.0 in 0.0 W/m2 CLR
07:27 5.6 °F 3.7 °F 1023.9 in Calm     88 % 0.0 in 0.0 W/m2 CLR
07:32 5.6 °F 3.9 °F 1023.9 in Calm     89 % 0.0 in 0.0 W/m2 CLR
07:37 5.6 °F 3.7 °F 1023.9 in Calm     88 % 0.0 in 0.0 W/m2 CLR
07:42 5.0 °F 3.3 °F 1023.9 in Calm     89 % 0.0 in 0.0 W/m2 CLR
07:43 5.0 °F 3.3 °F 1023.9 in Calm     89 % 0.0 in 0.0 W/m2 CLR
07:48 5.0 °F 3.3 °F 1024.3 in Calm     89 % 0.0 in 0.0 W/m2 CLR
07:53 5.0 °F 3.2 °F 1023.9 in Calm     88 % 0.0 in 0.0 W/m2 CLR
07:58 5.0 °F 3.2 °F 1024.3 in Calm     88 % 0.0 in 0.0 W/m2 CLR
08:03 5.0 °F 3.2 °F 1024.3 in Calm     88 % 0.0 in 0.0 W/m2 OVC
08:08 5.6 °F 3.9 °F 1024.3 in Calm     89 % 0.0 in 5.0 W/m2 OVC
08:13 5.6 °F 3.9 °F 1024.3 in Calm     89 % 0.0 in 9.0 W/m2 BKN
08:18 5.0 °F 3.2 °F 1024.3 in Calm     88 % 0.0 in 11.0 W/m2 BKN
08:23 6.1 °F 4.4 °F 1024.3 in Calm     89 % 0.0 in 14.0 W/m2 BKN
08:28 6.1 °F 4.4 °F 1024.3 in Calm     89 % 0.0 in 18.0 W/m2 BKN
08:33 5.6 °F 3.9 °F 1024.6 in Calm     89 % 0.0 in 21.0 W/m2 BKN
08:38 5.6 °F 3.7 °F 1024.6 in Calm     88 % 0.0 in 26.0 W/m2 BKN
08:43 5.6 °F 3.7 °F 1024.6 in Calm     88 % 0.0 in 37.0 W/m2 BKN
08:48 6.1 °F 4.1 °F 1024.6 in Calm     87 % 0.0 in 42.0 W/m2 BKN
08:53 6.1 °F 4.3 °F 1024.6 in Calm     88 % 0.0 in 62.0 W/m2 SCT
08:58 6.1 °F 4.3 °F 1024.6 in Calm     88 % 0.0 in 74.0 W/m2 FEW
09:03 6.1 °F 4.3 °F 1024.6 in Calm     88 % 0.0 in 83.0 W/m2 FEW
09:08 6.1 °F 4.1 °F 1024.9 in Calm     87 % 0.0 in 104.0 W/m2 FEW
09:13 6.7 °F 4.7 °F 1024.9 in Calm     87 % 0.0 in 116.0 W/m2 CLR
09:18 7.2 °F 5.1 °F 1024.9 in Calm     86 % 0.0 in 135.0 W/m2 CLR
09:23 7.8 °F 5.4 °F 1024.9 in Calm     85 % 0.0 in 93.0 W/m2 CLR
09:28 7.8 °F 5.2 °F 1024.9 in Calm     84 % 0.0 in 172.0 W/m2 CLR
09:38 8.3 °F 5.4 °F 1024.9 in Calm     82 % 0.0 in 206.0 W/m2 CLR
09:43 8.9 °F 5.6 °F 1025.3 in Calm     80 % 0.0 in 223.0 W/m2 CLR
09:48 8.9 °F 5.4 °F 1025.3 in Calm     79 % 0.0 in 241.0 W/m2 CLR
09:53 8.9 °F 5.4 °F 1025.3 in Calm     79 % 0.0 in 255.0 W/m2 CLR
09:58 9.4 °F 5.8 °F 1024.9 in Calm     78 % 0.0 in 269.0 W/m2 CLR
10:03 9.4 °F 5.8 °F 1024.9 in Calm     78 % 0.0 in 285.0 W/m2 CLR
10:08 10.6 °F 6.3 °F 1024.9 in Calm     75 % 0.0 in 299.0 W/m2 CLR
10:13 11.1 °F 6.4 °F 1025.3 in Calm     73 % 0.0 in 316.0 W/m2 CLR
10:14 11.1 °F 6.4 °F 1025.3 in Calm     73 % 0.0 in 316.0 W/m2 CLR
10:19 11.7 °F 7.0 °F 1025.3 in Calm     73 % 0.0 in 329.0 W/m2 CLR
10:24 12.8 °F 8.1 °F 1024.9 in Calm     73 % 0.0 in 343.0 W/m2 CLR
10:29 13.3 °F 8.4 °F 1024.9 in Calm     72 % 0.0 in 357.0 W/m2 CLR
10:34 13.9 °F 8.7 °F 1025.3 in Calm     71 % 0.0 in 373.0 W/m2 CLR
10:39 13.9 °F 8.5 °F 1025.3 in Calm     70 % 0.0 in 387.0 W/m2 CLR
10:44 13.9 °F 8.3 °F 1024.9 in Calm     69 % 0.0 in 399.0 W/m2 CLR
10:49 14.4 °F 8.8 °F 1025.3 in Calm     69 % 0.0 in 410.0 W/m2 CLR
10:54 15.0 °F 9.6 °F 1024.9 in Calm     70 % 0.0 in 424.0 W/m2 CLR
10:59 15.0 °F 9.3 °F 1024.9 in Calm     69 % 0.0 in 434.0 W/m2 CLR
11:04 15.6 °F 9.0 °F 1024.9 in Calm     65 % 0.0 in 448.0 W/m2 CLR
11:09 16.1 °F 8.6 °F 1024.9 in Calm     61 % 0.0 in 457.0 W/m2 CLR
11:14 16.7 °F 9.1 °F 1024.9 in Calm     61 % 0.0 in 471.0 W/m2 CLR
11:19 16.7 °F 9.1 °F 1024.9 in Calm     61 % 0.0 in 482.0 W/m2 CLR
11:24 17.2 °F 9.1 °F 1024.9 in Calm     59 % 0.0 in 494.0 W/m2 CLR
11:29 17.2 °F 9.4 °F 1024.9 in Calm     60 % 0.0 in 504.0 W/m2 CLR
11:34 17.8 °F 9.9 °F 1024.9 in Calm     60 % 0.0 in 513.0 W/m2 CLR
11:39 18.3 °F 10.4 °F 1024.9 in NNW 5.6 mph 5.6 mph 60 % 0.0 in 524.0 W/m2 CLR
11:44 18.3 °F 10.4 °F 1024.6 in Calm     60 % 0.0 in 533.0 W/m2 CLR
11:49 18.9 °F 11.2 °F 1024.9 in Calm     61 % 0.0 in 543.0 W/m2 CLR
11:54 18.9 °F 10.9 °F 1024.6 in North 8.0 mph 8.0 mph 60 % 0.0 in 550.0 W/m2 CLR
11:59 19.4 °F 11.5 °F 1024.6 in NNW 5.6 mph 5.6 mph 60 % 0.0 in 559.0 W/m2 CLR
12:04 19.4 °F 11.5 °F 1024.9 in NW 5.6 mph 5.6 mph 60 % 0.0 in 568.0 W/m2 CLR
12:09 20.0 °F 11.7 °F 1024.6 in NNW 13.0 mph 13.0 mph 59 % 0.0 in 577.0 W/m2 CLR
12:14 20.0 °F 11.5 °F 1024.6 in Calm     58 % 0.0 in 585.0 W/m2 CLR
12:19 20.0 °F 11.2 °F 1024.6 in North 9.3 mph 9.3 mph 57 % 0.0 in 594.0 W/m2 CLR
12:24 20.6 °F 11.4 °F 1024.6 in NNE 6.4 mph 6.4 mph 56 % 0.0 in 598.0 W/m2 CLR
12:29 20.6 °F 11.4 °F 1024.6 in NNW 5.6 mph 5.6 mph 56 % 0.0 in 606.0 W/m2 CLR
12:34 20.6 °F 12.0 °F 1024.6 in Calm     58 % 0.0 in 613.0 W/m2 CLR
12:39 21.1 °F 12.0 °F 1024.6 in NNW 4.8 mph 4.8 mph 56 % 0.0 in 617.0 W/m2 CLR
12:44 21.1 °F 12.0 °F 1024.6 in NW 3.7 mph 3.7 mph 56 % 0.0 in 622.0 W/m2 CLR
12:49 21.1 °F 12.0 °F 1024.6 in North 6.4 mph 6.4 mph 56 % 0.0 in 628.0 W/m2 CLR
12:59 21.7 °F 12.2 °F 1024.6 in NW 5.6 mph 5.6 mph 55 % 0.0 in 636.0 W/m2 CLR
13:04 21.7 °F 12.2 °F 1024.6 in WNW 5.6 mph   55 % 0.0 in 640.0 W/m2 CLR
13:14 22.2 °F 12.7 °F 1024.6 in Calm     55 % 0.0 in 645.0 W/m2 CLR
13:19 22.2 °F 13.0 °F 1024.6 in NNW 9.3 mph 9.3 mph 56 % 0.0 in 649.0 W/m2 CLR
13:24 22.2 °F 13.0 °F 1024.3 in NW 5.6 mph 5.6 mph 56 % 0.0 in 647.0 W/m2 CLR
13:29 22.2 °F 13.3 °F 1024.3 in NNW 5.6 mph 5.6 mph 57 % 0.0 in 645.0 W/m2 CLR
13:34 22.8 °F 14.1 °F 1024.3 in NNW 5.6 mph 5.6 mph 58 % 0.0 in 647.0 W/m2 CLR
13:39 22.8 °F 14.1 °F 1024.3 in NW 7.4 mph 7.4 mph 58 % 0.0 in 647.0 W/m2 CLR
13:44 23.3 °F 14.3 °F 1024.3 in NW 5.6 mph 5.6 mph 57 % 0.0 in 650.0 W/m2 CLR
13:49 23.3 °F 14.3 °F 1023.9 in NNW 5.6 mph 5.6 mph 57 % 0.0 in 652.0 W/m2 CLR
13:54 23.9 °F 14.8 °F 1023.9 in NNW 13.0 mph 13.0 mph 57 % 0.0 in 650.0 W/m2 CLR
13:59 23.3 °F 14.1 °F 1023.9 in NNW 3.7 mph   56 % 0.0 in 649.0 W/m2 CLR
14:04 23.9 °F 14.6 °F 1023.9 in WNW 5.6 mph   56 % 0.0 in 645.0 W/m2 CLR
14:09 23.9 °F 14.6 °F 1023.9 in NNW 9.3 mph 9.3 mph 56 % 0.0 in 645.0 W/m2 CLR
14:14 23.9 °F 14.3 °F 1023.6 in NW 9.3 mph 9.3 mph 55 % 0.0 in 642.0 W/m2 CLR
14:19 23.9 °F 14.3 °F 1023.6 in NW 9.3 mph 9.3 mph 55 % 0.0 in 642.0 W/m2 CLR
14:24 24.4 °F 14.6 °F 1023.6 in NNW 7.4 mph 7.4 mph 54 % 0.0 in 636.0 W/m2 CLR
14:29 24.4 °F 14.6 °F 1023.6 in NNW 13.0 mph 13.0 mph 54 % 0.0 in 635.0 W/m2 CLR
14:34 24.4 °F 14.2 °F 1023.2 in NNW 9.3 mph 9.3 mph 53 % 0.0 in 629.0 W/m2 CLR
14:39 24.4 °F 14.2 °F 1023.2 in WNW 9.3 mph 9.3 mph 53 % 0.0 in 626.0 W/m2 CLR
14:44 24.4 °F 14.2 °F 1023.2 in NNW 5.6 mph 5.6 mph 53 % 0.0 in 622.0 W/m2 CLR
14:55 25.0 °F 14.2 °F 1023.2 in NW 1.9 mph 1.9 mph 51 % 0.0 in 613.0 W/m2 CLR
15:00 25.0 °F 14.2 °F 1023.2 in NNW 13.0 mph 13.0 mph 51 % 0.0 in 606.0 W/m2 CLR
15:05 25.0 °F 13.6 °F 1022.9 in WNW 5.6 mph 5.6 mph 49 % 0.0 in 601.0 W/m2 CLR
15:10 25.0 °F 13.6 °F 1022.9 in NW 9.7 mph 9.7 mph 49 % 0.0 in 594.0 W/m2 CLR
15:15 25.6 °F 13.4 °F 1022.9 in NW 13.0 mph 13.0 mph 47 % 0.0 in 589.0 W/m2 CLR
15:20 25.6 °F 13.7 °F 1022.9 in NW 9.7 mph 9.7 mph 48 % 0.0 in 582.0 W/m2 CLR
15:25 25.6 °F 13.4 °F 1022.9 in NW 13.0 mph 13.0 mph 47 % 0.0 in 571.0 W/m2 CLR
15:30 25.6 °F 12.7 °F 1022.6 in NW 16.7 mph 16.7 mph 45 % 0.0 in 561.0 W/m2 CLR
15:35 26.1 °F 13.2 °F 1022.6 in NNW 13.0 mph 13.0 mph 45 % 0.0 in 555.0 W/m2 CLR
15:40 26.1 °F 12.6 °F 1022.6 in NW 13.0 mph 13.0 mph 43 % 0.0 in 545.0 W/m2 CLR
15:45 26.1 °F 11.8 °F 1022.6 in NW 13.0 mph 13.0 mph 41 % 0.0 in 538.0 W/m2 CLR
15:50 26.1 °F 11.4 °F 1022.6 in NW 16.7 mph 16.7 mph 40 % 0.0 in 531.0 W/m2 CLR
15:55 26.7 °F 11.6 °F 1022.6 in NNW 16.7 mph 16.7 mph 39 % 0.0 in 519.0 W/m2 CLR
16:00 26.7 °F 10.8 °F 1022.6 in NW 14.8 mph 14.8 mph 37 % 0.0 in 510.0 W/m2 CLR
16:01 26.7 °F 11.2 °F 1022.6 in NW 14.8 mph 14.8 mph 38 % 0.0 in 506.0 W/m2 CLR
16:06 26.7 °F 10.8 °F 1022.6 in NNW 9.3 mph 9.3 mph 37 % 0.0 in 494.0 W/m2 CLR
16:11 26.7 °F 11.6 °F 1022.6 in North 12.9 mph 12.9 mph 39 % 0.0 in 483.0 W/m2 CLR
16:16 26.7 °F 11.6 °F 1022.2 in NNE 9.3 mph 9.3 mph 39 % 0.0 in 471.0 W/m2 CLR
16:21 27.2 °F 12.4 °F 1022.2 in Calm     40 % 0.0 in 459.0 W/m2 CLR
16:26 27.2 °F 10.8 °F 1022.2 in NW 7.4 mph 7.4 mph 36 % 0.0 in 450.0 W/m2 CLR
16:36 26.7 °F 10.8 °F 1022.2 in NW 7.4 mph 7.4 mph 37 % 0.0 in 422.0 W/m2 CLR
16:41 27.2 °F 12.1 °F 1022.2 in NNW 18.5 mph 18.5 mph 39 % 0.0 in 410.0 W/m2 CLR
16:46 26.7 °F 11.9 °F 1022.2 in NW 5.6 mph 5.6 mph 40 % 0.0 in 397.0 W/m2 CLR
16:51 26.7 °F 11.6 °F 1022.2 in Calm     39 % 0.0 in 385.0 W/m2 CLR
17:01 27.2 °F 10.8 °F 1022.2 in NW 8.0 mph 8.0 mph 36 % 0.0 in 359.0 W/m2 CLR
17:06 27.2 °F 10.8 °F 1022.2 in NW 5.6 mph 5.6 mph 36 % 0.0 in 345.0 W/m2 CLR
17:11 27.2 °F 10.4 °F 1022.2 in NW 7.4 mph 7.4 mph 35 % 0.0 in 332.0 W/m2 CLR
17:16 27.2 °F 10.8 °F 1022.2 in Calm     36 % 0.0 in 315.0 W/m2 CLR
17:21 26.7 °F 10.8 °F 1022.2 in North 9.3 mph 9.3 mph 37 % 0.0 in 302.0 W/m2 CLR
17:26 26.7 °F 11.2 °F 1022.2 in NW 11.1 mph 11.1 mph 38 % 0.0 in 288.0 W/m2 CLR
17:31 26.7 °F 11.2 °F 1022.2 in NNW 5.6 mph 5.6 mph 38 % 0.0 in 272.0 W/m2 CLR
17:36 26.7 °F 11.6 °F 1022.2 in NNW 5.6 mph 5.6 mph 39 % 0.0 in 255.0 W/m2 CLR
17:41 26.7 °F 12.3 °F 1022.2 in North 8.0 mph 8.0 mph 41 % 0.0 in 239.0 W/m2 CLR
17:46 26.1 °F 12.2 °F 1022.6 in NNE 13.0 mph 13.0 mph 42 % 0.0 in 223.0 W/m2 CLR
17:51 26.1 °F 12.6 °F 1022.6 in NNW 5.6 mph 5.6 mph 43 % 0.0 in 207.0 W/m2 CLR
17:56 25.6 °F 12.1 °F 1022.6 in Calm     43 % 0.0 in 190.0 W/m2 CLR
18:06 25.6 °F 12.4 °F 1022.6 in NE 9.7 mph 9.7 mph 44 % 0.0 in 158.0 W/m2 CLR
18:11 25.0 °F 12.2 °F 1022.6 in NE 5.6 mph 5.6 mph 45 % 0.0 in 142.0 W/m2 CLR
18:21 24.4 °F 11.4 °F 1022.6 in Calm     44 % 0.0 in 109.0 W/m2 CLR
18:26 23.9 °F 10.9 °F 1022.6 in Calm     44 % 0.0 in 95.0 W/m2 CLR
18:36 23.3 °F 11.1 °F 1022.6 in Calm     46 % 0.0 in 70.0 W/m2 FEW
18:41 22.8 °F 10.6 °F 1022.6 in Calm     46 % 0.0 in 51.0 W/m2 SCT
18:46 22.2 °F 10.4 °F 1022.6 in Calm     47 % 0.0 in 44.0 W/m2 SCT
18:51 21.7 °F 9.8 °F 1022.6 in NNE 1.9 mph   47 % 0.0 in 35.0 W/m2 BKN
18:56 21.1 °F 9.7 °F 1022.6 in Calm     48 % 0.0 in 26.0 W/m2 BKN
19:01 20.6 °F 9.2 °F 1022.6 in Calm     48 % 0.0 in 19.0 W/m2 BKN
19:06 20.0 °F 8.9 °F 1022.9 in Calm     49 % 0.0 in 14.0 W/m2 BKN
19:11 19.4 °F 8.7 °F 1022.9 in Calm     50 % 0.0 in 12.0 W/m2 BKN
19:16 19.4 °F 9.1 °F 1022.9 in Calm     51 % 0.0 in 9.0 W/m2 BKN
19:21 18.9 °F 8.8 °F 1022.9 in Calm     52 % 0.0 in 5.0 W/m2 OVC
19:22 18.9 °F 8.8 °F 1022.9 in Calm     52 % 0.0 in 5.0 W/m2 OVC
19:27 18.3 °F 8.6 °F 1022.9 in Calm     53 % 0.0 in 0.0 W/m2 OVC
19:32 18.3 °F 9.1 °F 1022.9 in NNE 5.6 mph 5.6 mph 55 % 0.0 in 0.0 W/m2 OVC
19:42 18.3 °F 9.7 °F 1023.2 in NE 3.2 mph   57 % 0.0 in 0.0 W/m2 CLR
19:47 17.8 °F 9.4 °F 1023.2 in NNE 3.7 mph 3.7 mph 58 % 0.0 in 0.0 W/m2 CLR
19:57 17.2 °F 8.9 °F 1023.2 in Calm     58 % 0.0 in 0.0 W/m2 CLR
20:07 17.2 °F 9.4 °F 1023.2 in Calm     60 % 0.0 in 0.0 W/m2 CLR
20:12 16.7 °F 8.6 °F 1023.2 in Calm     59 % 0.0 in 0.0 W/m2 CLR
20:17 16.7 °F 8.9 °F 1023.6 in Calm     60 % 0.0 in 0.0 W/m2 CLR
20:22 16.1 °F 8.6 °F 1023.6 in Calm     61 % 0.0 in 0.0 W/m2 CLR
20:27 16.1 °F 9.1 °F 1023.6 in Calm     63 % 0.0 in 0.0 W/m2 CLR
20:32 16.1 °F 9.3 °F 1023.6 in ENE 5.6 mph 5.6 mph 64 % 0.0 in 0.0 W/m2 CLR
20:37 15.6 °F 8.6 °F 1023.6 in Calm     63 % 0.0 in 0.0 W/m2 CLR
20:42 15.0 °F 7.6 °F 1023.6 in Calm     61 % 0.0 in 0.0 W/m2 CLR
20:47 15.0 °F 7.3 °F 1023.6 in Calm     60 % 0.0 in 0.0 W/m2 CLR
20:52 15.0 °F 7.6 °F 1023.6 in Calm     61 % 0.0 in 0.0 W/m2 CLR
20:57 15.0 °F 7.6 °F 1023.9 in Calm     61 % 0.0 in 0.0 W/m2 CLR
21:02 15.0 °F 7.8 °F 1023.9 in Calm     62 % 0.0 in 0.0 W/m2 CLR
21:07 15.0 °F 8.0 °F 1023.9 in Calm     63 % 0.0 in 0.0 W/m2 CLR
21:12 15.0 °F 8.2 °F 1023.9 in Calm     64 % 0.0 in 0.0 W/m2 CLR
21:17 15.0 °F 8.4 °F 1023.9 in Calm     65 % 0.0 in 0.0 W/m2 CLR
21:22 15.0 °F 9.1 °F 1024.3 in Calm     68 % 0.0 in 0.0 W/m2 CLR
21:27 15.0 °F 8.9 °F 1024.3 in Calm     67 % 0.0 in 0.0 W/m2 CLR
21:32 15.0 °F 8.9 °F 1024.3 in Calm     67 % 0.0 in 0.0 W/m2 CLR
21:37 14.4 °F 8.6 °F 1024.3 in Calm     68 % 0.0 in 0.0 W/m2 CLR
21:42 14.4 °F 9.4 °F 1024.3 in Calm     72 % 0.0 in 0.0 W/m2 CLR
21:47 13.9 °F 8.9 °F 1024.3 in NNW 3.7 mph 3.7 mph 72 % 0.0 in 0.0 W/m2 CLR
21:52 13.9 °F 8.1 °F 1024.3 in Calm     68 % 0.0 in 0.0 W/m2 CLR
21:57 13.3 °F 7.6 °F 1024.3 in Calm     68 % 0.0 in 0.0 W/m2 CLR
22:07 12.8 °F 7.7 °F 1024.6 in Calm     71 % 0.0 in 0.0 W/m2 CLR
22:12 12.8 °F 7.8 °F 1024.6 in Calm     72 % 0.0 in 0.0 W/m2 CLR
22:17 12.8 °F 8.3 °F 1024.6 in Calm     74 % 0.0 in 0.0 W/m2 CLR
22:22 12.8 °F 7.8 °F 1024.6 in Calm     72 % 0.0 in 0.0 W/m2 CLR
22:27 12.8 °F 7.7 °F 1024.6 in Calm     71 % 0.0 in 0.0 W/m2 CLR
22:32 12.2 °F 7.1 °F 1024.6 in Calm     71 % 0.0 in 0.0 W/m2 CLR
22:37 12.8 °F 7.8 °F 1024.6 in Calm     72 % 0.0 in 0.0 W/m2 CLR
22:42 12.8 °F 8.1 °F 1024.6 in Calm     73 % 0.0 in 0.0 W/m2 CLR
22:47 13.3 °F 8.4 °F 1024.6 in Calm     72 % 0.0 in 0.0 W/m2 CLR
22:52 13.3 °F 8.8 °F 1024.6 in Calm     74 % 0.0 in 0.0 W/m2 CLR
22:57 12.8 °F 8.1 °F 1024.6 in Calm     73 % 0.0 in 0.0 W/m2 CLR
23:02 13.3 °F 8.8 °F 1024.9 in Calm     74 % 0.0 in 0.0 W/m2 CLR
23:07 13.3 °F 8.6 °F 1024.9 in Calm     73 % 0.0 in 0.0 W/m2 CLR
23:12 12.8 °F 8.3 °F 1024.9 in Calm     74 % 0.0 in 0.0 W/m2 CLR
23:17 12.8 °F 8.3 °F 1024.9 in Calm     74 % 0.0 in 0.0 W/m2 CLR
23:22 12.8 °F 8.3 °F 1024.9 in Calm     74 % 0.0 in 0.0 W/m2 CLR
23:27 12.8 °F 8.4 °F 1024.9 in Calm     75 % 0.0 in 0.0 W/m2 CLR
23:32 12.8 °F 8.7 °F 1025.3 in Calm     76 % 0.0 in 0.0 W/m2 CLR
23:37 12.8 °F 8.7 °F 1025.3 in Calm     76 % 0.0 in 0.0 W/m2 CLR
23:42 12.8 °F 8.7 °F 1025.3 in Calm     76 % 0.0 in 0.0 W/m2 CLR
23:47 12.8 °F 8.7 °F 1025.3 in Calm     76 % 0.0 in 0.0 W/m2 CLR
23:52 12.2 °F 8.5 °F 1025.3 in Calm     78 % 0.0 in 0.0 W/m2 CLR
23:57 12.2 °F 8.5 °F 1025.3 in Calm     78 % 0.0 in 0.0 W/m2 CLR
Lo Temps de Massalio
Compliments of Weather Underground - 1.25 mb